sensor_id;sensor_type;location;lat;lon;timestamp;P1;durP1;ratioP1;P2;durP2;ratioP2
66127;SDS011;52925;52.436;-1.952;2023-04-12T00:00:46;5.97;;;0.90;;
66127;SDS011;52925;52.436;-1.952;2023-04-12T00:02:08;6.67;;;1.20;;
66127;SDS011;52925;52.436;-1.952;2023-04-12T00:03:28;5.77;;;1.20;;
66127;SDS011;52925;52.436;-1.952;2023-04-12T00:04:52;3.57;;;0.90;;
66127;SDS011;52925;52.436;-1.952;2023-04-12T00:06:13;5.10;;;1.10;;
66127;SDS011;52925;52.436;-1.952;2023-04-12T00:07:34;6.77;;;1.20;;
66127;SDS011;52925;52.436;-1.952;2023-04-12T00:08:56;8.20;;;1.07;;
66127;SDS011;52925;52.436;-1.952;2023-04-12T00:10:17;5.13;;;1.13;;
66127;SDS011;52925;52.436;-1.952;2023-04-12T00:11:39;5.27;;;1.00;;
66127;SDS011;52925;52.436;-1.952;2023-04-12T00:12:59;4.77;;;1.00;;
66127;SDS011;52925;52.436;-1.952;2023-04-12T00:14:20;6.03;;;1.10;;
66127;SDS011;52925;52.436;-1.952;2023-04-12T00:15:40;5.40;;;1.00;;
66127;SDS011;52925;52.436;-1.952;2023-04-12T00:17:01;6.27;;;0.97;;
66127;SDS011;52925;52.436;-1.952;2023-04-12T00:18:21;3.93;;;0.90;;
66127;SDS011;52925;52.436;-1.952;2023-04-12T00:19:42;5.23;;;1.13;;
66127;SDS011;52925;52.436;-1.952;2023-04-12T00:21:03;3.93;;;0.80;;
66127;SDS011;52925;52.436;-1.952;2023-04-12T00:22:24;5.67;;;1.00;;
66127;SDS011;52925;52.436;-1.952;2023-04-12T00:23:44;6.53;;;0.98;;
66127;SDS011;52925;52.436;-1.952;2023-04-12T00:25:07;3.30;;;0.67;;
66127;SDS011;52925;52.436;-1.952;2023-04-12T00:26:29;4.90;;;0.80;;
66127;SDS011;52925;52.436;-1.952;2023-04-12T00:27:49;3.93;;;0.80;;
66127;SDS011;52925;52.436;-1.952;2023-04-12T00:29:10;3.33;;;0.73;;
66127;SDS011;52925;52.436;-1.952;2023-04-12T00:30:30;3.63;;;0.70;;
66127;SDS011;52925;52.436;-1.952;2023-04-12T00:31:51;3.57;;;0.97;;
66127;SDS011;52925;52.436;-1.952;2023-04-12T05:31:22;2.42;;;0.50;;
66127;SDS011;52925;52.436;-1.952;2023-04-12T05:32:43;2.20;;;0.40;;
66127;SDS011;52925;52.436;-1.952;2023-04-12T05:34:06;3.07;;;0.70;;
66127;SDS011;52925;52.436;-1.952;2023-04-12T05:35:33;1.50;;;0.40;;
66127;SDS011;52925;52.436;-1.952;2023-04-12T05:36:55;2.33;;;0.43;;
66127;SDS011;52925;52.436;-1.952;2023-04-12T05:38:16;4.45;;;0.57;;
66127;SDS011;52925;52.436;-1.952;2023-04-12T05:39:40;2.22;;;0.30;;
66127;SDS011;52925;52.436;-1.952;2023-04-12T05:41:02;1.80;;;0.35;;
66127;SDS011;52925;52.436;-1.952;2023-04-12T05:42:24;3.63;;;0.52;;
66127;SDS011;52925;52.436;-1.952;2023-04-12T05:43:46;2.72;;;0.40;;
66127;SDS011;52925;52.436;-1.952;2023-04-12T05:45:07;1.10;;;0.30;;
66127;SDS011;52925;52.436;-1.952;2023-04-12T05:46:31;2.30;;;0.40;;
66127;SDS011;52925;52.436;-1.952;2023-04-12T05:47:52;2.13;;;0.45;;
66127;SDS011;52925;52.436;-1.952;2023-04-12T05:49:14;2.40;;;0.50;;
66127;SDS011;52925;52.436;-1.952;2023-04-12T05:50:36;2.57;;;0.40;;
66127;SDS011;52925;52.436;-1.952;2023-04-12T05:51:57;1.87;;;0.60;;
66127;SDS011;52925;52.436;-1.952;2023-04-12T05:53:16;1.10;;;0.37;;
66127;SDS011;52925;52.436;-1.952;2023-04-12T05:54:37;1.40;;;0.30;;
66127;SDS011;52925;52.436;-1.952;2023-04-12T05:55:59;2.35;;;0.65;;
66127;SDS011;52925;52.436;-1.952;2023-04-12T05:57:21;1.88;;;0.40;;
66127;SDS011;52925;52.436;-1.952;2023-04-12T05:58:41;1.93;;;0.40;;
66127;SDS011;52925;52.436;-1.952;2023-04-12T06:00:02;1.53;;;0.50;;
66127;SDS011;52925;52.436;-1.952;2023-04-12T06:01:33;1.10;;;0.30;;
66127;SDS011;52925;52.436;-1.952;2023-04-12T06:02:53;1.77;;;0.45;;
66127;SDS011;52925;52.436;-1.952;2023-04-12T06:04:14;3.65;;;0.30;;
66127;SDS011;52925;52.436;-1.952;2023-04-12T06:05:36;1.27;;;0.30;;
66127;SDS011;52925;52.436;-1.952;2023-04-12T06:06:57;1.67;;;0.27;;
66127;SDS011;52925;52.436;-1.952;2023-04-12T06:08:18;2.40;;;0.40;;
66127;SDS011;52925;52.436;-1.952;2023-04-12T06:09:38;3.37;;;0.50;;
66127;SDS011;52925;52.436;-1.952;2023-04-12T06:11:00;1.63;;;0.30;;
66127;SDS011;52925;52.436;-1.952;2023-04-12T06:12:21;2.00;;;0.40;;
66127;SDS011;52925;52.436;-1.952;2023-04-12T06:13:42;1.77;;;0.30;;
66127;SDS011;52925;52.436;-1.952;2023-04-12T06:15:03;2.07;;;0.33;;
66127;SDS011;52925;52.436;-1.952;2023-04-12T06:16:25;1.97;;;0.40;;
66127;SDS011;52925;52.436;-1.952;2023-04-12T06:17:47;1.70;;;0.30;;
66127;SDS011;52925;52.436;-1.952;2023-04-12T06:19:10;2.93;;;0.40;;
66127;SDS011;52925;52.436;-1.952;2023-04-12T06:20:30;3.80;;;0.73;;
66127;SDS011;52925;52.436;-1.952;2023-04-12T06:21:51;1.00;;;0.20;;
66127;SDS011;52925;52.436;-1.952;2023-04-12T06:23:13;0.90;;;0.20;;
66127;SDS011;52925;52.436;-1.952;2023-04-12T06:24:34;0.60;;;0.30;;
66127;SDS011;52925;52.436;-1.952;2023-04-12T06:25:55;1.47;;;0.30;;
66127;SDS011;52925;52.436;-1.952;2023-04-12T06:27:15;1.87;;;0.40;;
66127;SDS011;52925;52.436;-1.952;2023-04-12T06:28:36;1.80;;;0.40;;
66127;SDS011;52925;52.436;-1.952;2023-04-12T06:29:57;1.80;;;0.37;;
66127;SDS011;52925;52.436;-1.952;2023-04-12T06:31:18;2.83;;;0.60;;
66127;SDS011;52925;52.436;-1.952;2023-04-12T06:32:39;1.75;;;0.40;;
66127;SDS011;52925;52.436;-1.952;2023-04-12T06:34:02;1.63;;;0.50;;
66127;SDS011;52925;52.436;-1.952;2023-04-12T06:35:24;2.38;;;0.50;;
66127;SDS011;52925;52.436;-1.952;2023-04-12T06:36:45;2.35;;;0.47;;
66127;SDS011;52925;52.436;-1.952;2023-04-12T06:38:05;2.70;;;0.50;;
66127;SDS011;52925;52.436;-1.952;2023-04-12T06:39:26;2.40;;;0.57;;
66127;SDS011;52925;52.436;-1.952;2023-04-12T06:40:47;3.17;;;0.70;;
66127;SDS011;52925;52.436;-1.952;2023-04-12T06:42:07;2.03;;;0.60;;
66127;SDS011;52925;52.436;-1.952;2023-04-12T06:43:31;2.00;;;0.50;;
66127;SDS011;52925;52.436;-1.952;2023-04-12T06:44:52;4.68;;;0.47;;
66127;SDS011;52925;52.436;-1.952;2023-04-12T06:46:14;1.63;;;0.50;;
66127;SDS011;52925;52.436;-1.952;2023-04-12T06:47:36;2.33;;;0.50;;
66127;SDS011;52925;52.436;-1.952;2023-04-12T06:48:57;2.57;;;0.53;;
66127;SDS011;52925;52.436;-1.952;2023-04-12T17:46:35;0.90;;;0.30;;
66127;SDS011;52925;52.436;-1.952;2023-04-12T17:47:56;2.20;;;0.30;;
66127;SDS011;52925;52.436;-1.952;2023-04-12T17:49:17;0.60;;;0.40;;
66127;SDS011;52925;52.436;-1.952;2023-04-12T17:50:38;0.53;;;0.30;;
66127;SDS011;52925;52.436;-1.952;2023-04-12T17:51:59;0.63;;;0.30;;
66127;SDS011;52925;52.436;-1.952;2023-04-12T17:53:21;1.30;;;0.20;;
66127;SDS011;52925;52.436;-1.952;2023-04-12T17:54:42;2.63;;;0.60;;
66127;SDS011;52925;52.436;-1.952;2023-04-12T17:56:02;1.67;;;0.40;;
66127;SDS011;52925;52.436;-1.952;2023-04-12T17:57:24;2.07;;;0.30;;
66127;SDS011;52925;52.436;-1.952;2023-04-12T17:58:45;0.63;;;0.30;;
66127;SDS011;52925;52.436;-1.952;2023-04-12T18:00:07;1.33;;;0.30;;
66127;SDS011;52925;52.436;-1.952;2023-04-12T18:01:32;2.27;;;0.37;;
66127;SDS011;52925;52.436;-1.952;2023-04-12T18:02:55;0.90;;;0.30;;
66127;SDS011;52925;52.436;-1.952;2023-04-12T18:04:16;1.57;;;0.30;;
66127;SDS011;52925;52.436;-1.952;2023-04-12T18:05:37;0.43;;;0.30;;
66127;SDS011;52925;52.436;-1.952;2023-04-12T18:06:58;1.13;;;0.23;;
66127;SDS011;52925;52.436;-1.952;2023-04-12T18:08:19;1.43;;;0.40;;
66127;SDS011;52925;52.436;-1.952;2023-04-12T18:09:41;1.13;;;0.30;;
66127;SDS011;52925;52.436;-1.952;2023-04-12T18:11:04;1.43;;;0.40;;
66127;SDS011;52925;52.436;-1.952;2023-04-12T18:12:25;1.03;;;0.40;;
66127;SDS011;52925;52.436;-1.952;2023-04-12T18:13:46;0.93;;;0.20;;
66127;SDS011;52925;52.436;-1.952;2023-04-12T18:15:07;1.73;;;0.40;;
66127;SDS011;52925;52.436;-1.952;2023-04-12T18:16:29;0.83;;;0.30;;
66127;SDS011;52925;52.436;-1.952;2023-04-12T18:17:51;1.33;;;0.40;;
66127;SDS011;52925;52.436;-1.952;2023-04-12T18:19:13;2.22;;;0.50;;
66127;SDS011;52925;52.436;-1.952;2023-04-12T18:20:37;1.37;;;0.30;;
66127;SDS011;52925;52.436;-1.952;2023-04-12T18:21:57;1.23;;;0.40;;
66127;SDS011;52925;52.436;-1.952;2023-04-12T18:23:19;2.00;;;0.37;;
66127;SDS011;52925;52.436;-1.952;2023-04-12T18:24:40;1.67;;;0.40;;
66127;SDS011;52925;52.436;-1.952;2023-04-12T18:26:03;1.50;;;0.50;;
66127;SDS011;52925;52.436;-1.952;2023-04-12T18:27:24;1.10;;;0.40;;
66127;SDS011;52925;52.436;-1.952;2023-04-12T18:28:46;1.63;;;0.37;;
66127;SDS011;52925;52.436;-1.952;2023-04-12T18:30:06;1.53;;;0.40;;
66127;SDS011;52925;52.436;-1.952;2023-04-12T18:31:27;3.23;;;0.30;;
66127;SDS011;52925;52.436;-1.952;2023-04-12T18:32:48;0.93;;;0.40;;
66127;SDS011;52925;52.436;-1.952;2023-04-12T18:34:10;0.53;;;0.20;;
66127;SDS011;52925;52.436;-1.952;2023-04-12T18:35:31;2.03;;;0.60;;
66127;SDS011;52925;52.436;-1.952;2023-04-12T18:36:53;2.17;;;0.40;;
66127;SDS011;52925;52.436;-1.952;2023-04-12T18:38:13;1.80;;;0.60;;
66127;SDS011;52925;52.436;-1.952;2023-04-12T18:39:35;1.00;;;0.40;;
66127;SDS011;52925;52.436;-1.952;2023-04-12T18:40:55;1.60;;;0.50;;
66127;SDS011;52925;52.436;-1.952;2023-04-12T18:42:16;0.67;;;0.30;;
66127;SDS011;52925;52.436;-1.952;2023-04-12T18:43:37;3.43;;;0.50;;
66127;SDS011;52925;52.436;-1.952;2023-04-12T18:44:59;2.57;;;0.53;;
66127;SDS011;52925;52.436;-1.952;2023-04-12T18:46:20;0.87;;;0.40;;
66127;SDS011;52925;52.436;-1.952;2023-04-12T18:47:40;1.30;;;0.40;;
66127;SDS011;52925;52.436;-1.952;2023-04-12T18:49:02;2.27;;;0.50;;
66127;SDS011;52925;52.436;-1.952;2023-04-12T18:50:25;2.07;;;0.47;;
66127;SDS011;52925;52.436;-1.952;2023-04-12T18:51:46;2.05;;;0.40;;
66127;SDS011;52925;52.436;-1.952;2023-04-12T18:53:08;1.43;;;0.30;;
66127;SDS011;52925;52.436;-1.952;2023-04-12T18:54:29;1.03;;;0.40;;
66127;SDS011;52925;52.436;-1.952;2023-04-12T18:55:50;2.27;;;0.40;;
66127;SDS011;52925;52.436;-1.952;2023-04-12T18:57:12;2.17;;;0.50;;
66127;SDS011;52925;52.436;-1.952;2023-04-12T18:58:34;0.67;;;0.30;;
66127;SDS011;52925;52.436;-1.952;2023-04-12T18:59:55;1.13;;;0.50;;
66127;SDS011;52925;52.436;-1.952;2023-04-12T19:01:15;2.13;;;0.40;;
66127;SDS011;52925;52.436;-1.952;2023-04-12T19:02:36;0.93;;;0.40;;
66127;SDS011;52925;52.436;-1.952;2023-04-12T19:03:57;1.77;;;0.50;;
66127;SDS011;52925;52.436;-1.952;2023-04-12T19:05:22;1.47;;;0.40;;
66127;SDS011;52925;52.436;-1.952;2023-04-12T19:06:45;1.43;;;0.40;;
66127;SDS011;52925;52.436;-1.952;2023-04-12T19:08:05;1.90;;;0.40;;
66127;SDS011;52925;52.436;-1.952;2023-04-12T19:09:28;0.63;;;0.40;;
66127;SDS011;52925;52.436;-1.952;2023-04-12T19:10:48;1.63;;;0.53;;
66127;SDS011;52925;52.436;-1.952;2023-04-12T19:12:10;0.50;;;0.30;;
66127;SDS011;52925;52.436;-1.952;2023-04-12T19:13:31;1.73;;;0.57;;
66127;SDS011;52925;52.436;-1.952;2023-04-12T19:14:52;0.83;;;0.53;;
66127;SDS011;52925;52.436;-1.952;2023-04-12T19:16:13;2.50;;;0.90;;
66127;SDS011;52925;52.436;-1.952;2023-04-12T19:17:34;1.87;;;0.63;;
66127;SDS011;52925;52.436;-1.952;2023-04-12T19:18:56;2.97;;;0.90;;
66127;SDS011;52925;52.436;-1.952;2023-04-12T19:20:18;1.03;;;0.77;;
66127;SDS011;52925;52.436;-1.952;2023-04-12T19:21:40;2.60;;;1.10;;
66127;SDS011;52925;52.436;-1.952;2023-04-12T19:23:02;2.40;;;1.00;;
66127;SDS011;52925;52.436;-1.952;2023-04-12T19:24:23;1.73;;;0.77;;
66127;SDS011;52925;52.436;-1.952;2023-04-12T19:25:44;3.13;;;0.90;;
66127;SDS011;52925;52.436;-1.952;2023-04-12T19:27:06;2.00;;;0.80;;
66127;SDS011;52925;52.436;-1.952;2023-04-12T19:28:28;1.47;;;0.97;;
66127;SDS011;52925;52.436;-1.952;2023-04-12T19:29:49;1.33;;;0.90;;
66127;SDS011;52925;52.436;-1.952;2023-04-12T19:31:10;2.07;;;1.03;;
66127;SDS011;52925;52.436;-1.952;2023-04-12T19:32:32;2.47;;;1.33;;
66127;SDS011;52925;52.436;-1.952;2023-04-12T19:33:53;2.70;;;1.20;;
66127;SDS011;52925;52.436;-1.952;2023-04-12T19:35:14;3.10;;;1.37;;
66127;SDS011;52925;52.436;-1.952;2023-04-12T19:36:35;4.57;;;2.13;;
66127;SDS011;52925;52.436;-1.952;2023-04-12T19:37:55;2.67;;;1.43;;
66127;SDS011;52925;52.436;-1.952;2023-04-12T19:39:17;3.83;;;1.83;;
66127;SDS011;52925;52.436;-1.952;2023-04-12T19:40:40;4.57;;;1.70;;
66127;SDS011;52925;52.436;-1.952;2023-04-12T19:42:02;3.72;;;1.90;;
66127;SDS011;52925;52.436;-1.952;2023-04-12T19:43:23;4.83;;;1.97;;
66127;SDS011;52925;52.436;-1.952;2023-04-12T19:44:44;3.67;;;1.60;;
66127;SDS011;52925;52.436;-1.952;2023-04-12T19:46:05;2.83;;;1.43;;
66127;SDS011;52925;52.436;-1.952;2023-04-12T19:47:27;3.37;;;1.20;;
66127;SDS011;52925;52.436;-1.952;2023-04-12T19:48:46;4.33;;;1.20;;
66127;SDS011;52925;52.436;-1.952;2023-04-12T19:50:08;3.60;;;1.53;;
66127;SDS011;52925;52.436;-1.952;2023-04-12T19:51:28;2.50;;;0.90;;
66127;SDS011;52925;52.436;-1.952;2023-04-12T19:52:50;3.37;;;1.00;;
66127;SDS011;52925;52.436;-1.952;2023-04-12T19:54:11;2.30;;;1.00;;
66127;SDS011;52925;52.436;-1.952;2023-04-12T19:55:33;3.97;;;0.87;;
66127;SDS011;52925;52.436;-1.952;2023-04-12T19:56:54;1.33;;;0.80;;
66127;SDS011;52925;52.436;-1.952;2023-04-12T19:58:15;2.03;;;0.93;;
66127;SDS011;52925;52.436;-1.952;2023-04-12T19:59:37;0.93;;;0.70;;
66127;SDS011;52925;52.436;-1.952;2023-04-12T20:00:59;2.80;;;0.80;;
66127;SDS011;52925;52.436;-1.952;2023-04-12T20:02:20;1.87;;;0.77;;
66127;SDS011;52925;52.436;-1.952;2023-04-12T20:03:42;1.30;;;0.73;;
66127;SDS011;52925;52.436;-1.952;2023-04-12T20:05:03;1.77;;;0.53;;
66127;SDS011;52925;52.436;-1.952;2023-04-12T20:06:25;2.20;;;0.80;;
66127;SDS011;52925;52.436;-1.952;2023-04-12T20:07:47;0.83;;;0.60;;
66127;SDS011;52925;52.436;-1.952;2023-04-12T20:09:10;1.37;;;0.60;;
66127;SDS011;52925;52.436;-1.952;2023-04-12T20:10:31;0.70;;;0.50;;
66127;SDS011;52925;52.436;-1.952;2023-04-12T20:11:55;1.63;;;0.60;;
66127;SDS011;52925;52.436;-1.952;2023-04-12T20:13:15;1.07;;;0.70;;
66127;SDS011;52925;52.436;-1.952;2023-04-12T20:14:36;2.63;;;0.60;;
66127;SDS011;52925;52.436;-1.952;2023-04-12T20:15:57;0.90;;;0.50;;
66127;SDS011;52925;52.436;-1.952;2023-04-12T20:17:20;1.33;;;0.40;;
66127;SDS011;52925;52.436;-1.952;2023-04-12T20:18:40;1.93;;;0.40;;
66127;SDS011;52925;52.436;-1.952;2023-04-12T20:20:00;1.00;;;0.60;;
66127;SDS011;52925;52.436;-1.952;2023-04-12T20:21:25;1.87;;;0.60;;
66127;SDS011;52925;52.436;-1.952;2023-04-12T20:22:50;2.17;;;0.50;;
66127;SDS011;52925;52.436;-1.952;2023-04-12T20:24:10;1.63;;;0.60;;
66127;SDS011;52925;52.436;-1.952;2023-04-12T20:25:31;1.10;;;0.50;;
66127;SDS011;52925;52.436;-1.952;2023-04-12T20:26:57;1.60;;;0.70;;
66127;SDS011;52925;52.436;-1.952;2023-04-12T20:28:18;1.00;;;0.50;;
66127;SDS011;52925;52.436;-1.952;2023-04-12T20:29:39;0.50;;;0.30;;
66127;SDS011;52925;52.436;-1.952;2023-04-12T20:31:00;0.83;;;0.40;;
66127;SDS011;52925;52.436;-1.952;2023-04-12T20:32:22;2.90;;;0.60;;
66127;SDS011;52925;52.436;-1.952;2023-04-12T20:33:43;1.42;;;0.50;;
66127;SDS011;52925;52.436;-1.952;2023-04-12T20:35:05;0.90;;;0.40;;
66127;SDS011;52925;52.436;-1.952;2023-04-12T20:36:27;1.10;;;0.50;;
66127;SDS011;52925;52.436;-1.952;2023-04-12T20:37:48;1.50;;;0.60;;
66127;SDS011;52925;52.436;-1.952;2023-04-12T20:39:09;1.13;;;0.50;;
66127;SDS011;52925;52.436;-1.952;2023-04-12T20:40:29;1.17;;;0.33;;
66127;SDS011;52925;52.436;-1.952;2023-04-12T20:41:50;1.83;;;0.60;;
66127;SDS011;52925;52.436;-1.952;2023-04-12T20:43:14;2.28;;;0.45;;
66127;SDS011;52925;52.436;-1.952;2023-04-12T20:44:35;1.47;;;0.47;;
66127;SDS011;52925;52.436;-1.952;2023-04-12T20:45:56;0.93;;;0.40;;
66127;SDS011;52925;52.436;-1.952;2023-04-12T20:47:18;1.33;;;0.40;;
66127;SDS011;52925;52.436;-1.952;2023-04-12T20:48:40;0.70;;;0.40;;
66127;SDS011;52925;52.436;-1.952;2023-04-12T20:50:02;1.27;;;0.50;;
66127;SDS011;52925;52.436;-1.952;2023-04-12T20:51:23;1.87;;;0.40;;
66127;SDS011;52925;52.436;-1.952;2023-04-12T20:52:44;2.07;;;0.50;;
66127;SDS011;52925;52.436;-1.952;2023-04-12T20:54:05;1.97;;;0.70;;
66127;SDS011;52925;52.436;-1.952;2023-04-12T20:55:27;1.17;;;0.53;;
66127;SDS011;52925;52.436;-1.952;2023-04-12T20:56:53;1.30;;;0.70;;
66127;SDS011;52925;52.436;-1.952;2023-04-12T20:58:14;2.07;;;0.90;;
66127;SDS011;52925;52.436;-1.952;2023-04-12T20:59:36;2.50;;;0.90;;
66127;SDS011;52925;52.436;-1.952;2023-04-12T21:00:56;1.40;;;0.80;;
66127;SDS011;52925;52.436;-1.952;2023-04-12T21:02:18;2.07;;;0.97;;
66127;SDS011;52925;52.436;-1.952;2023-04-12T21:03:39;2.47;;;1.00;;
66127;SDS011;52925;52.436;-1.952;2023-04-12T21:05:01;4.47;;;1.20;;
66127;SDS011;52925;52.436;-1.952;2023-04-12T21:06:22;3.20;;;1.13;;
66127;SDS011;52925;52.436;-1.952;2023-04-12T21:07:45;3.47;;;1.40;;
66127;SDS011;52925;52.436;-1.952;2023-04-12T21:09:07;2.77;;;1.13;;
66127;SDS011;52925;52.436;-1.952;2023-04-12T21:10:28;3.37;;;1.13;;
66127;SDS011;52925;52.436;-1.952;2023-04-12T21:11:49;2.38;;;1.13;;
66127;SDS011;52925;52.436;-1.952;2023-04-12T21:13:09;2.00;;;1.00;;
66127;SDS011;52925;52.436;-1.952;2023-04-12T21:14:32;2.07;;;1.33;;
66127;SDS011;52925;52.436;-1.952;2023-04-12T21:15:53;3.13;;;1.33;;
66127;SDS011;52925;52.436;-1.952;2023-04-12T21:17:15;2.72;;;1.25;;
66127;SDS011;52925;52.436;-1.952;2023-04-12T21:18:40;2.73;;;1.23;;
66127;SDS011;52925;52.436;-1.952;2023-04-12T21:20:01;3.03;;;1.30;;
66127;SDS011;52925;52.436;-1.952;2023-04-12T21:21:31;2.60;;;1.38;;
66127;SDS011;52925;52.436;-1.952;2023-04-12T21:22:52;2.27;;;1.20;;
66127;SDS011;52925;52.436;-1.952;2023-04-12T21:24:13;3.57;;;1.30;;
66127;SDS011;52925;52.436;-1.952;2023-04-12T21:25:34;2.33;;;1.20;;
66127;SDS011;52925;52.436;-1.952;2023-04-12T21:26:55;1.93;;;1.10;;
66127;SDS011;52925;52.436;-1.952;2023-04-12T21:28:16;2.53;;;1.27;;
66127;SDS011;52925;52.436;-1.952;2023-04-12T21:29:39;2.47;;;1.20;;
66127;SDS011;52925;52.436;-1.952;2023-04-12T21:31:00;3.07;;;1.50;;
66127;SDS011;52925;52.436;-1.952;2023-04-12T21:32:21;3.03;;;1.40;;
66127;SDS011;52925;52.436;-1.952;2023-04-12T21:33:43;2.80;;;1.07;;
66127;SDS011;52925;52.436;-1.952;2023-04-12T21:35:04;2.47;;;1.10;;
66127;SDS011;52925;52.436;-1.952;2023-04-12T21:36:26;2.17;;;1.03;;
66127;SDS011;52925;52.436;-1.952;2023-04-12T21:37:49;1.50;;;0.80;;
66127;SDS011;52925;52.436;-1.952;2023-04-12T21:39:10;2.67;;;0.90;;
66127;SDS011;52925;52.436;-1.952;2023-04-12T21:40:30;3.40;;;0.93;;
66127;SDS011;52925;52.436;-1.952;2023-04-12T21:41:51;2.60;;;1.10;;
66127;SDS011;52925;52.436;-1.952;2023-04-12T21:43:13;1.70;;;0.70;;
66127;SDS011;52925;52.436;-1.952;2023-04-12T21:44:33;1.70;;;0.83;;
66127;SDS011;52925;52.436;-1.952;2023-04-12T21:45:58;1.93;;;0.80;;
66127;SDS011;52925;52.436;-1.952;2023-04-12T21:47:18;2.27;;;0.90;;
66127;SDS011;52925;52.436;-1.952;2023-04-12T21:48:39;1.63;;;0.70;;
66127;SDS011;52925;52.436;-1.952;2023-04-12T21:50:00;0.80;;;0.50;;
66127;SDS011;52925;52.436;-1.952;2023-04-12T21:51:22;1.30;;;0.67;;
66127;SDS011;52925;52.436;-1.952;2023-04-12T21:52:44;2.33;;;0.80;;
66127;SDS011;52925;52.436;-1.952;2023-04-12T21:54:05;1.47;;;0.70;;
66127;SDS011;52925;52.436;-1.952;2023-04-12T21:55:26;0.67;;;0.50;;
66127;SDS011;52925;52.436;-1.952;2023-04-12T21:56:47;2.63;;;0.77;;
66127;SDS011;52925;52.436;-1.952;2023-04-12T21:58:07;1.80;;;0.70;;
66127;SDS011;52925;52.436;-1.952;2023-04-12T21:59:28;1.27;;;0.50;;
66127;SDS011;52925;52.436;-1.952;2023-04-12T22:00:49;0.95;;;0.50;;
66127;SDS011;52925;52.436;-1.952;2023-04-12T22:02:11;0.83;;;0.40;;
66127;SDS011;52925;52.436;-1.952;2023-04-12T22:03:33;1.77;;;0.40;;
66127;SDS011;52925;52.436;-1.952;2023-04-12T22:04:53;1.67;;;0.60;;
66127;SDS011;52925;52.436;-1.952;2023-04-12T22:06:14;0.80;;;0.40;;
66127;SDS011;52925;52.436;-1.952;2023-04-12T22:07:34;3.25;;;0.50;;
66127;SDS011;52925;52.436;-1.952;2023-04-12T22:08:58;0.80;;;0.40;;
66127;SDS011;52925;52.436;-1.952;2023-04-12T22:10:21;0.90;;;0.30;;
66127;SDS011;52925;52.436;-1.952;2023-04-12T22:11:42;0.35;;;0.32;;
66127;SDS011;52925;52.436;-1.952;2023-04-12T22:13:03;0.70;;;0.20;;
66127;SDS011;52925;52.436;-1.952;2023-04-12T22:14:27;1.00;;;0.30;;
66127;SDS011;52925;52.436;-1.952;2023-04-12T22:15:49;0.70;;;0.40;;
66127;SDS011;52925;52.436;-1.952;2023-04-12T22:17:12;0.43;;;0.20;;
66127;SDS011;52925;52.436;-1.952;2023-04-12T22:18:34;1.50;;;0.37;;
66127;SDS011;52925;52.436;-1.952;2023-04-12T22:19:55;1.00;;;0.23;;
66127;SDS011;52925;52.436;-1.952;2023-04-12T22:21:15;0.30;;;0.20;;
66127;SDS011;52925;52.436;-1.952;2023-04-12T22:22:35;0.50;;;0.33;;
66127;SDS011;52925;52.436;-1.952;2023-04-12T22:23:56;1.27;;;0.30;;
66127;SDS011;52925;52.436;-1.952;2023-04-12T22:25:17;0.67;;;0.20;;
66127;SDS011;52925;52.436;-1.952;2023-04-12T22:26:38;0.60;;;0.33;;
66127;SDS011;52925;52.436;-1.952;2023-04-12T22:27:59;2.03;;;0.30;;
66127;SDS011;52925;52.436;-1.952;2023-04-12T22:29:20;0.43;;;0.20;;
66127;SDS011;52925;52.436;-1.952;2023-04-12T22:30:40;0.53;;;0.20;;
66127;SDS011;52925;52.436;-1.952;2023-04-12T22:32:01;1.63;;;0.20;;
66127;SDS011;52925;52.436;-1.952;2023-04-12T22:33:23;0.43;;;0.20;;
66127;SDS011;52925;52.436;-1.952;2023-04-12T22:34:43;0.70;;;0.27;;
66127;SDS011;52925;52.436;-1.952;2023-04-12T22:36:04;0.93;;;0.20;;
66127;SDS011;52925;52.436;-1.952;2023-04-12T22:37:25;1.75;;;0.20;;
66127;SDS011;52925;52.436;-1.952;2023-04-12T22:38:48;0.40;;;0.10;;
66127;SDS011;52925;52.436;-1.952;2023-04-12T22:40:09;1.17;;;0.30;;
66127;SDS011;52925;52.436;-1.952;2023-04-12T22:41:31;1.40;;;0.30;;
66127;SDS011;52925;52.436;-1.952;2023-04-12T22:42:51;1.73;;;0.20;;
66127;SDS011;52925;52.436;-1.952;2023-04-12T22:44:14;0.87;;;0.30;;
66127;SDS011;52925;52.436;-1.952;2023-04-12T22:45:34;1.60;;;0.30;;
66127;SDS011;52925;52.436;-1.952;2023-04-12T22:46:55;1.43;;;0.37;;
66127;SDS011;52925;52.436;-1.952;2023-04-12T22:48:16;1.70;;;0.40;;
66127;SDS011;52925;52.436;-1.952;2023-04-12T22:49:44;0.20;;;0.10;;
66127;SDS011;52925;52.436;-1.952;2023-04-12T22:51:08;0.70;;;0.30;;
66127;SDS011;52925;52.436;-1.952;2023-04-12T22:52:28;1.70;;;0.20;;
66127;SDS011;52925;52.436;-1.952;2023-04-12T22:53:49;1.10;;;0.30;;
66127;SDS011;52925;52.436;-1.952;2023-04-12T22:55:10;0.70;;;0.20;;
66127;SDS011;52925;52.436;-1.952;2023-04-12T22:56:32;1.53;;;0.23;;
66127;SDS011;52925;52.436;-1.952;2023-04-12T22:57:59;0.50;;;0.20;;
66127;SDS011;52925;52.436;-1.952;2023-04-12T22:59:23;0.83;;;0.20;;
66127;SDS011;52925;52.436;-1.952;2023-04-12T23:00:43;1.00;;;0.30;;
66127;SDS011;52925;52.436;-1.952;2023-04-12T23:02:07;1.70;;;0.40;;
66127;SDS011;52925;52.436;-1.952;2023-04-12T23:03:27;2.07;;;0.30;;
66127;SDS011;52925;52.436;-1.952;2023-04-12T23:04:50;2.63;;;0.30;;
66127;SDS011;52925;52.436;-1.952;2023-04-12T23:06:09;1.13;;;0.17;;
66127;SDS011;52925;52.436;-1.952;2023-04-12T23:07:31;1.13;;;0.50;;
66127;SDS011;52925;52.436;-1.952;2023-04-12T23:08:52;0.97;;;0.20;;
66127;SDS011;52925;52.436;-1.952;2023-04-12T23:10:15;0.90;;;0.20;;
66127;SDS011;52925;52.436;-1.952;2023-04-12T23:11:36;1.23;;;0.20;;
66127;SDS011;52925;52.436;-1.952;2023-04-12T23:12:59;1.00;;;0.20;;
66127;SDS011;52925;52.436;-1.952;2023-04-12T23:14:21;2.00;;;0.40;;
66127;SDS011;52925;52.436;-1.952;2023-04-12T23:15:41;1.23;;;0.40;;
66127;SDS011;52925;52.436;-1.952;2023-04-12T23:17:02;0.50;;;0.30;;
66127;SDS011;52925;52.436;-1.952;2023-04-12T23:18:22;2.58;;;0.40;;
66127;SDS011;52925;52.436;-1.952;2023-04-12T23:19:44;1.47;;;0.30;;
66127;SDS011;52925;52.436;-1.952;2023-04-12T23:21:05;1.60;;;0.40;;
66127;SDS011;52925;52.436;-1.952;2023-04-12T23:22:28;2.90;;;0.40;;
66127;SDS011;52925;52.436;-1.952;2023-04-12T23:23:50;1.02;;;0.30;;
66127;SDS011;52925;52.436;-1.952;2023-04-12T23:25:14;2.00;;;0.35;;
66127;SDS011;52925;52.436;-1.952;2023-04-12T23:26:34;3.58;;;0.40;;
66127;SDS011;52925;52.436;-1.952;2023-04-12T23:27:54;2.03;;;0.50;;
66127;SDS011;52925;52.436;-1.952;2023-04-12T23:29:15;1.17;;;0.40;;
66127;SDS011;52925;52.436;-1.952;2023-04-12T23:30:36;0.80;;;0.40;;
66127;SDS011;52925;52.436;-1.952;2023-04-12T23:31:56;1.00;;;0.40;;
66127;SDS011;52925;52.436;-1.952;2023-04-12T23:33:17;2.57;;;0.60;;
66127;SDS011;52925;52.436;-1.952;2023-04-12T23:34:38;2.40;;;0.70;;
66127;SDS011;52925;52.436;-1.952;2023-04-12T23:35:59;4.27;;;0.53;;
66127;SDS011;52925;52.436;-1.952;2023-04-12T23:37:22;2.65;;;0.50;;
66127;SDS011;52925;52.436;-1.952;2023-04-12T23:38:43;1.67;;;0.70;;
66127;SDS011;52925;52.436;-1.952;2023-04-12T23:40:04;2.87;;;0.60;;
66127;SDS011;52925;52.436;-1.952;2023-04-12T23:41:30;4.13;;;0.57;;
66127;SDS011;52925;52.436;-1.952;2023-04-12T23:42:51;1.47;;;0.50;;
66127;SDS011;52925;52.436;-1.952;2023-04-12T23:44:12;2.03;;;0.50;;
66127;SDS011;52925;52.436;-1.952;2023-04-12T23:45:33;1.57;;;0.50;;
66127;SDS011;52925;52.436;-1.952;2023-04-12T23:46:53;2.05;;;0.52;;
66127;SDS011;52925;52.436;-1.952;2023-04-12T23:48:14;3.05;;;0.60;;
66127;SDS011;52925;52.436;-1.952;2023-04-12T23:49:36;1.95;;;0.50;;
66127;SDS011;52925;52.436;-1.952;2023-04-12T23:50:55;2.15;;;0.73;;
66127;SDS011;52925;52.436;-1.952;2023-04-12T23:52:16;3.80;;;0.65;;
66127;SDS011;52925;52.436;-1.952;2023-04-12T23:53:38;3.53;;;0.90;;
66127;SDS011;52925;52.436;-1.952;2023-04-12T23:54:58;3.80;;;0.67;;
66127;SDS011;52925;52.436;-1.952;2023-04-12T23:56:20;3.00;;;0.67;;
66127;SDS011;52925;52.436;-1.952;2023-04-12T23:57:41;3.87;;;0.80;;